sensor_id;sensor_type;location;lat;lon;timestamp;P1;durP1;ratioP1;P2;durP2;ratioP2
48014;SDS011;33780;51.034;7.120;2023-06-24T00:00:04;5.47;;;2.58;;
48014;SDS011;33780;51.034;7.120;2023-06-24T00:02:36;4.07;;;2.47;;
48014;SDS011;33780;51.034;7.120;2023-06-24T00:05:04;3.83;;;2.22;;
48014;SDS011;33780;51.034;7.120;2023-06-24T00:07:33;4.10;;;2.20;;
48014;SDS011;33780;51.034;7.120;2023-06-24T00:10:08;4.85;;;2.50;;
48014;SDS011;33780;51.034;7.120;2023-06-24T00:12:43;3.63;;;2.50;;
48014;SDS011;33780;51.034;7.120;2023-06-24T00:15:10;4.60;;;2.58;;
48014;SDS011;33780;51.034;7.120;2023-06-24T00:17:38;4.78;;;2.38;;
48014;SDS011;33780;51.034;7.120;2023-06-24T00:20:04;4.40;;;2.60;;
48014;SDS011;33780;51.034;7.120;2023-06-24T00:22:38;7.32;;;2.45;;
48014;SDS011;33780;51.034;7.120;2023-06-24T00:25:13;3.67;;;2.30;;
48014;SDS011;33780;51.034;7.120;2023-06-24T00:27:49;4.00;;;2.30;;
48014;SDS011;33780;51.034;7.120;2023-06-24T00:30:14;5.82;;;2.60;;
48014;SDS011;33780;51.034;7.120;2023-06-24T00:32:47;5.05;;;2.80;;
48014;SDS011;33780;51.034;7.120;2023-06-24T00:35:13;4.25;;;2.30;;
48014;SDS011;33780;51.034;7.120;2023-06-24T00:37:42;7.10;;;2.30;;
48014;SDS011;33780;51.034;7.120;2023-06-24T00:40:10;3.85;;;2.40;;
48014;SDS011;33780;51.034;7.120;2023-06-24T00:42:36;4.18;;;2.55;;
48014;SDS011;33780;51.034;7.120;2023-06-24T00:45:03;4.63;;;2.30;;
48014;SDS011;33780;51.034;7.120;2023-06-24T00:47:30;5.93;;;2.67;;
48014;SDS011;33780;51.034;7.120;2023-06-24T00:50:11;4.18;;;2.25;;
48014;SDS011;33780;51.034;7.120;2023-06-24T00:52:40;4.65;;;2.38;;
48014;SDS011;33780;51.034;7.120;2023-06-24T00:55:10;4.75;;;2.50;;
48014;SDS011;33780;51.034;7.120;2023-06-24T00:57:46;4.90;;;2.55;;
48014;SDS011;33780;51.034;7.120;2023-06-24T01:00:19;6.57;;;2.40;;
48014;SDS011;33780;51.034;7.120;2023-06-24T01:02:47;4.43;;;2.53;;
48014;SDS011;33780;51.034;7.120;2023-06-24T01:05:13;7.97;;;2.38;;
48014;SDS011;33780;51.034;7.120;2023-06-24T01:07:42;5.60;;;2.58;;
48014;SDS011;33780;51.034;7.120;2023-06-24T01:10:23;4.38;;;2.25;;
48014;SDS011;33780;51.034;7.120;2023-06-24T01:12:49;3.83;;;2.40;;
48014;SDS011;33780;51.034;7.120;2023-06-24T01:15:17;4.20;;;2.50;;
48014;SDS011;33780;51.034;7.120;2023-06-24T01:18:02;4.03;;;2.58;;
48014;SDS011;33780;51.034;7.120;2023-06-24T01:37:03;4.13;;;2.25;;
48014;SDS011;33780;51.034;7.120;2023-06-24T01:39:31;4.32;;;2.58;;
48014;SDS011;33780;51.034;7.120;2023-06-24T01:42:02;5.80;;;2.20;;
48014;SDS011;33780;51.034;7.120;2023-06-24T01:44:33;3.78;;;2.20;;
48014;SDS011;33780;51.034;7.120;2023-06-24T01:47:00;4.47;;;2.20;;
48014;SDS011;33780;51.034;7.120;2023-06-24T01:49:38;4.07;;;2.20;;
48014;SDS011;33780;51.034;7.120;2023-06-24T01:52:07;3.83;;;2.33;;
48014;SDS011;33780;51.034;7.120;2023-06-24T01:54:37;5.38;;;2.17;;
48014;SDS011;33780;51.034;7.120;2023-06-24T01:57:09;3.38;;;2.03;;
48014;SDS011;33780;51.034;7.120;2023-06-24T01:59:41;5.57;;;2.38;;
48014;SDS011;33780;51.034;7.120;2023-06-24T02:02:11;4.85;;;2.60;;
48014;SDS011;33780;51.034;7.120;2023-06-24T02:04:48;7.05;;;2.10;;
48014;SDS011;33780;51.034;7.120;2023-06-24T02:07:19;3.63;;;2.15;;
48014;SDS011;33780;51.034;7.120;2023-06-24T02:09:57;3.65;;;2.30;;
48014;SDS011;33780;51.034;7.120;2023-06-24T02:12:33;4.38;;;2.17;;
48014;SDS011;33780;51.034;7.120;2023-06-24T02:15:05;4.10;;;2.45;;
48014;SDS011;33780;51.034;7.120;2023-06-24T02:17:32;3.95;;;2.55;;
48014;SDS011;33780;51.034;7.120;2023-06-24T02:20:02;4.20;;;2.25;;
48014;SDS011;33780;51.034;7.120;2023-06-24T02:22:36;4.63;;;2.53;;
48014;SDS011;33780;51.034;7.120;2023-06-24T02:25:08;5.10;;;2.42;;
48014;SDS011;33780;51.034;7.120;2023-06-24T02:27:37;4.40;;;2.65;;
48014;SDS011;33780;51.034;7.120;2023-06-24T02:30:11;4.05;;;2.45;;
48014;SDS011;33780;51.034;7.120;2023-06-24T02:32:39;3.58;;;2.10;;
48014;SDS011;33780;51.034;7.120;2023-06-24T02:35:08;4.80;;;2.35;;
48014;SDS011;33780;51.034;7.120;2023-06-24T02:37:33;4.60;;;2.55;;
48014;SDS011;33780;51.034;7.120;2023-06-24T02:40:02;4.25;;;2.20;;
48014;SDS011;33780;51.034;7.120;2023-06-24T02:42:33;4.97;;;1.98;;
48014;SDS011;33780;51.034;7.120;2023-06-24T02:45:02;5.72;;;2.55;;
48014;SDS011;33780;51.034;7.120;2023-06-24T02:47:34;5.28;;;2.50;;
48014;SDS011;33780;51.034;7.120;2023-06-24T02:50:04;4.65;;;2.53;;
48014;SDS011;33780;51.034;7.120;2023-06-24T02:52:37;4.65;;;2.10;;
48014;SDS011;33780;51.034;7.120;2023-06-24T02:55:04;5.47;;;2.10;;
48014;SDS011;33780;51.034;7.120;2023-06-24T02:57:30;5.68;;;2.17;;
48014;SDS011;33780;51.034;7.120;2023-06-24T03:00:01;4.10;;;2.45;;
48014;SDS011;33780;51.034;7.120;2023-06-24T03:02:40;4.43;;;2.30;;
48014;SDS011;33780;51.034;7.120;2023-06-24T03:05:07;7.45;;;2.33;;
48014;SDS011;33780;51.034;7.120;2023-06-24T03:07:35;3.78;;;2.25;;
48014;SDS011;33780;51.034;7.120;2023-06-24T03:10:02;3.47;;;1.90;;
48014;SDS011;33780;51.034;7.120;2023-06-24T03:12:28;3.90;;;2.30;;
48014;SDS011;33780;51.034;7.120;2023-06-24T03:14:57;3.65;;;2.20;;
48014;SDS011;33780;51.034;7.120;2023-06-24T03:17:22;4.32;;;2.08;;
48014;SDS011;33780;51.034;7.120;2023-06-24T03:19:52;6.78;;;2.42;;
48014;SDS011;33780;51.034;7.120;2023-06-24T03:22:18;4.47;;;2.47;;
48014;SDS011;33780;51.034;7.120;2023-06-24T03:24:43;3.45;;;2.05;;
48014;SDS011;33780;51.034;7.120;2023-06-24T03:27:09;3.50;;;2.08;;
48014;SDS011;33780;51.034;7.120;2023-06-24T03:29:34;3.70;;;2.15;;
48014;SDS011;33780;51.034;7.120;2023-06-24T03:32:03;4.63;;;2.10;;
48014;SDS011;33780;51.034;7.120;2023-06-24T03:34:28;7.13;;;2.50;;
48014;SDS011;33780;51.034;7.120;2023-06-24T03:36:54;4.32;;;2.33;;
48014;SDS011;33780;51.034;7.120;2023-06-24T03:39:20;3.92;;;2.15;;
48014;SDS011;33780;51.034;7.120;2023-06-24T03:41:46;4.65;;;2.40;;
48014;SDS011;33780;51.034;7.120;2023-06-24T03:44:11;5.45;;;2.17;;
48014;SDS011;33780;51.034;7.120;2023-06-24T03:46:37;5.25;;;2.30;;
48014;SDS011;33780;51.034;7.120;2023-06-24T03:49:02;4.35;;;2.35;;
48014;SDS011;33780;51.034;7.120;2023-06-24T03:51:27;4.63;;;2.22;;
48014;SDS011;33780;51.034;7.120;2023-06-24T03:53:53;4.63;;;2.22;;
48014;SDS011;33780;51.034;7.120;2023-06-24T03:56:18;6.22;;;2.38;;
48014;SDS011;33780;51.034;7.120;2023-06-24T03:58:44;4.65;;;2.40;;
48014;SDS011;33780;51.034;7.120;2023-06-24T04:01:09;4.97;;;1.90;;
48014;SDS011;33780;51.034;7.120;2023-06-24T04:03:34;5.30;;;2.92;;
48014;SDS011;33780;51.034;7.120;2023-06-24T04:06:00;3.22;;;2.10;;
48014;SDS011;33780;51.034;7.120;2023-06-24T04:08:28;3.80;;;2.10;;
48014;SDS011;33780;51.034;7.120;2023-06-24T04:10:54;4.47;;;2.40;;
48014;SDS011;33780;51.034;7.120;2023-06-24T04:13:25;4.13;;;2.17;;
48014;SDS011;33780;51.034;7.120;2023-06-24T04:15:50;5.50;;;2.17;;
48014;SDS011;33780;51.034;7.120;2023-06-24T04:18:16;4.43;;;2.20;;
48014;SDS011;33780;51.034;7.120;2023-06-24T04:20:41;3.95;;;2.22;;
48014;SDS011;33780;51.034;7.120;2023-06-24T04:23:06;4.68;;;2.35;;
48014;SDS011;33780;51.034;7.120;2023-06-24T04:25:34;3.65;;;2.30;;
48014;SDS011;33780;51.034;7.120;2023-06-24T04:27:59;4.93;;;2.00;;
48014;SDS011;33780;51.034;7.120;2023-06-24T04:30:25;3.83;;;2.10;;
48014;SDS011;33780;51.034;7.120;2023-06-24T04:32:52;3.72;;;2.47;;
48014;SDS011;33780;51.034;7.120;2023-06-24T04:35:18;4.85;;;2.05;;
48014;SDS011;33780;51.034;7.120;2023-06-24T04:37:43;3.50;;;2.00;;
48014;SDS011;33780;51.034;7.120;2023-06-24T04:40:09;6.47;;;2.25;;
48014;SDS011;33780;51.034;7.120;2023-06-24T04:42:35;5.60;;;2.50;;
48014;SDS011;33780;51.034;7.120;2023-06-24T04:45:00;5.63;;;2.33;;
48014;SDS011;33780;51.034;7.120;2023-06-24T04:47:30;4.22;;;2.30;;
48014;SDS011;33780;51.034;7.120;2023-06-24T04:49:55;3.97;;;2.22;;
48014;SDS011;33780;51.034;7.120;2023-06-24T04:52:21;3.35;;;1.90;;
48014;SDS011;33780;51.034;7.120;2023-06-24T04:54:48;6.10;;;2.30;;
48014;SDS011;33780;51.034;7.120;2023-06-24T04:57:22;3.55;;;2.13;;
48014;SDS011;33780;51.034;7.120;2023-06-24T04:59:52;3.15;;;1.95;;
48014;SDS011;33780;51.034;7.120;2023-06-24T05:02:17;4.10;;;2.33;;
48014;SDS011;33780;51.034;7.120;2023-06-24T05:04:43;3.83;;;1.88;;
48014;SDS011;33780;51.034;7.120;2023-06-24T05:07:08;3.92;;;2.22;;
48014;SDS011;33780;51.034;7.120;2023-06-24T05:09:37;4.28;;;2.50;;
48014;SDS011;33780;51.034;7.120;2023-06-24T05:12:03;5.38;;;2.83;;
48014;SDS011;33780;51.034;7.120;2023-06-24T05:14:33;5.18;;;2.42;;
48014;SDS011;33780;51.034;7.120;2023-06-24T05:16:59;4.97;;;2.20;;
48014;SDS011;33780;51.034;7.120;2023-06-24T05:19:24;4.25;;;2.40;;
48014;SDS011;33780;51.034;7.120;2023-06-24T05:21:50;4.45;;;2.25;;
48014;SDS011;33780;51.034;7.120;2023-06-24T05:24:15;5.28;;;2.40;;
48014;SDS011;33780;51.034;7.120;2023-06-24T05:26:40;3.35;;;1.98;;
48014;SDS011;33780;51.034;7.120;2023-06-24T05:39:03;7.20;;;2.28;;
48014;SDS011;33780;51.034;7.120;2023-06-24T05:53:47;3.80;;;2.20;;
48014;SDS011;33780;51.034;7.120;2023-06-24T05:57:22;4.25;;;2.08;;
48014;SDS011;33780;51.034;7.120;2023-06-24T06:03:25;4.20;;;2.15;;
48014;SDS011;33780;51.034;7.120;2023-06-24T06:05:50;4.18;;;2.40;;
48014;SDS011;33780;51.034;7.120;2023-06-24T06:08:16;3.80;;;2.33;;
48014;SDS011;33780;51.034;7.120;2023-06-24T06:10:41;5.32;;;2.50;;
48014;SDS011;33780;51.034;7.120;2023-06-24T06:13:42;3.83;;;2.30;;
48014;SDS011;33780;51.034;7.120;2023-06-24T06:16:07;3.50;;;2.10;;
48014;SDS011;33780;51.034;7.120;2023-06-24T06:18:33;3.53;;;2.10;;
48014;SDS011;33780;51.034;7.120;2023-06-24T06:20:58;4.20;;;2.40;;
48014;SDS011;33780;51.034;7.120;2023-06-24T06:23:23;3.80;;;2.42;;
48014;SDS011;33780;51.034;7.120;2023-06-24T06:25:49;4.22;;;2.10;;
48014;SDS011;33780;51.034;7.120;2023-06-24T06:28:15;3.97;;;2.35;;
48014;SDS011;33780;51.034;7.120;2023-06-24T06:30:52;6.57;;;2.53;;
48014;SDS011;33780;51.034;7.120;2023-06-24T06:33:17;3.83;;;2.03;;
48014;SDS011;33780;51.034;7.120;2023-06-24T06:35:42;4.57;;;2.38;;
48014;SDS011;33780;51.034;7.120;2023-06-24T06:38:17;4.93;;;2.55;;
48014;SDS011;33780;51.034;7.120;2023-06-24T06:41:22;4.43;;;2.63;;
48014;SDS011;33780;51.034;7.120;2023-06-24T06:43:52;7.47;;;3.00;;
48014;SDS011;33780;51.034;7.120;2023-06-24T06:46:18;5.18;;;3.10;;
48014;SDS011;33780;51.034;7.120;2023-06-24T06:48:44;7.93;;;3.05;;
48014;SDS011;33780;51.034;7.120;2023-06-24T06:51:09;5.20;;;3.47;;
48014;SDS011;33780;51.034;7.120;2023-06-24T06:53:35;6.50;;;3.60;;
48014;SDS011;33780;51.034;7.120;2023-06-24T06:56:00;7.28;;;4.03;;
48014;SDS011;33780;51.034;7.120;2023-06-24T06:58:25;5.55;;;3.78;;
48014;SDS011;33780;51.034;7.120;2023-06-24T07:00:51;6.18;;;4.00;;
48014;SDS011;33780;51.034;7.120;2023-06-24T07:03:19;8.90;;;3.70;;
48014;SDS011;33780;51.034;7.120;2023-06-24T07:05:44;5.53;;;3.50;;
48014;SDS011;33780;51.034;7.120;2023-06-24T07:08:10;6.82;;;3.95;;
48014;SDS011;33780;51.034;7.120;2023-06-24T07:10:35;8.80;;;4.57;;
48014;SDS011;33780;51.034;7.120;2023-06-24T07:13:00;7.80;;;3.70;;
48014;SDS011;33780;51.034;7.120;2023-06-24T07:15:26;6.97;;;3.83;;
48014;SDS011;33780;51.034;7.120;2023-06-24T07:17:52;11.23;;;4.20;;
48014;SDS011;33780;51.034;7.120;2023-06-24T07:20:18;6.88;;;4.05;;
48014;SDS011;33780;51.034;7.120;2023-06-24T07:22:44;7.30;;;3.97;;
48014;SDS011;33780;51.034;7.120;2023-06-24T07:25:09;7.05;;;3.85;;
48014;SDS011;33780;51.034;7.120;2023-06-24T07:27:34;8.60;;;4.47;;
48014;SDS011;33780;51.034;7.120;2023-06-24T07:30:00;8.65;;;4.30;;
48014;SDS011;33780;51.034;7.120;2023-06-24T07:32:25;8.15;;;4.53;;
48014;SDS011;33780;51.034;7.120;2023-06-24T07:34:50;8.65;;;4.55;;
48014;SDS011;33780;51.034;7.120;2023-06-24T07:37:15;11.45;;;4.50;;
48014;SDS011;33780;51.034;7.120;2023-06-24T07:39:41;8.55;;;4.82;;
48014;SDS011;33780;51.034;7.120;2023-06-24T07:42:06;9.23;;;4.53;;
48014;SDS011;33780;51.034;7.120;2023-06-24T07:44:32;9.30;;;5.13;;
48014;SDS011;33780;51.034;7.120;2023-06-24T07:46:57;7.28;;;4.55;;
48014;SDS011;33780;51.034;7.120;2023-06-24T07:49:23;9.05;;;5.22;;
48014;SDS011;33780;51.034;7.120;2023-06-24T07:51:48;11.77;;;5.70;;
48014;SDS011;33780;51.034;7.120;2023-06-24T07:54:14;10.60;;;5.28;;
48014;SDS011;33780;51.034;7.120;2023-06-24T07:56:39;9.55;;;5.13;;
48014;SDS011;33780;51.034;7.120;2023-06-24T07:59:05;9.15;;;4.53;;
48014;SDS011;33780;51.034;7.120;2023-06-24T08:01:30;13.52;;;5.38;;
48014;SDS011;33780;51.034;7.120;2023-06-24T08:03:55;10.48;;;4.90;;
48014;SDS011;33780;51.034;7.120;2023-06-24T08:06:20;7.00;;;4.70;;
48014;SDS011;33780;51.034;7.120;2023-06-24T08:08:46;8.82;;;4.93;;
48014;SDS011;33780;51.034;7.120;2023-06-24T08:11:11;9.48;;;5.18;;
48014;SDS011;33780;51.034;7.120;2023-06-24T08:13:37;9.82;;;5.63;;
48014;SDS011;33780;51.034;7.120;2023-06-24T08:16:03;11.23;;;5.28;;
48014;SDS011;33780;51.034;7.120;2023-06-24T08:18:28;9.63;;;5.65;;
48014;SDS011;33780;51.034;7.120;2023-06-24T08:20:54;9.18;;;5.00;;
48014;SDS011;33780;51.034;7.120;2023-06-24T08:23:19;9.25;;;5.28;;
48014;SDS011;33780;51.034;7.120;2023-06-24T08:25:44;8.48;;;4.38;;
48014;SDS011;33780;51.034;7.120;2023-06-24T08:28:10;8.15;;;4.65;;
48014;SDS011;33780;51.034;7.120;2023-06-24T08:30:36;8.32;;;4.53;;
48014;SDS011;33780;51.034;7.120;2023-06-24T08:33:01;10.93;;;5.07;;
48014;SDS011;33780;51.034;7.120;2023-06-24T08:35:26;9.63;;;4.93;;
48014;SDS011;33780;51.034;7.120;2023-06-24T08:37:52;9.00;;;5.05;;
48014;SDS011;33780;51.034;7.120;2023-06-24T08:40:17;10.40;;;4.97;;
48014;SDS011;33780;51.034;7.120;2023-06-24T08:42:45;9.07;;;5.10;;
48014;SDS011;33780;51.034;7.120;2023-06-24T08:45:10;9.85;;;5.00;;
48014;SDS011;33780;51.034;7.120;2023-06-24T08:47:36;8.50;;;4.40;;
48014;SDS011;33780;51.034;7.120;2023-06-24T08:50:02;9.35;;;4.68;;
48014;SDS011;33780;51.034;7.120;2023-06-24T08:52:42;7.93;;;4.65;;
48014;SDS011;33780;51.034;7.120;2023-06-24T08:55:10;8.43;;;4.47;;
48014;SDS011;33780;51.034;7.120;2023-06-24T08:57:41;9.90;;;4.90;;
48014;SDS011;33780;51.034;7.120;2023-06-24T09:00:06;7.40;;;4.30;;
48014;SDS011;33780;51.034;7.120;2023-06-24T09:02:36;7.43;;;4.10;;
48014;SDS011;33780;51.034;7.120;2023-06-24T09:05:03;8.07;;;4.13;;
48014;SDS011;33780;51.034;7.120;2023-06-24T09:07:32;8.68;;;4.45;;
48014;SDS011;33780;51.034;7.120;2023-06-24T09:09:58;9.73;;;4.05;;
48014;SDS011;33780;51.034;7.120;2023-06-24T09:12:25;8.85;;;4.57;;
48014;SDS011;33780;51.034;7.120;2023-06-24T09:14:51;6.38;;;3.55;;
48014;SDS011;33780;51.034;7.120;2023-06-24T09:17:17;6.90;;;4.40;;
48014;SDS011;33780;51.034;7.120;2023-06-24T09:19:43;7.38;;;4.00;;
48014;SDS011;33780;51.034;7.120;2023-06-24T09:22:09;7.30;;;4.07;;
48014;SDS011;33780;51.034;7.120;2023-06-24T09:24:46;9.05;;;4.50;;
48014;SDS011;33780;51.034;7.120;2023-06-24T09:27:13;9.95;;;4.40;;
48014;SDS011;33780;51.034;7.120;2023-06-24T09:29:40;7.20;;;3.90;;
48014;SDS011;33780;51.034;7.120;2023-06-24T09:32:06;7.57;;;3.80;;
48014;SDS011;33780;51.034;7.120;2023-06-24T09:34:32;6.78;;;3.35;;
48014;SDS011;33780;51.034;7.120;2023-06-24T09:36:58;10.40;;;3.70;;
48014;SDS011;33780;51.034;7.120;2023-06-24T09:39:24;5.07;;;3.45;;
48014;SDS011;33780;51.034;7.120;2023-06-24T09:41:57;5.70;;;3.15;;
48014;SDS011;33780;51.034;7.120;2023-06-24T09:44:24;5.40;;;3.25;;
48014;SDS011;33780;51.034;7.120;2023-06-24T09:46:51;5.20;;;2.88;;
48014;SDS011;33780;51.034;7.120;2023-06-24T09:49:17;9.77;;;4.03;;
48014;SDS011;33780;51.034;7.120;2023-06-24T09:51:44;6.38;;;3.90;;
48014;SDS011;33780;51.034;7.120;2023-06-24T09:54:12;8.48;;;4.22;;
48014;SDS011;33780;51.034;7.120;2023-06-24T09:56:45;7.15;;;4.00;;
48014;SDS011;33780;51.034;7.120;2023-06-24T09:59:13;5.75;;;2.90;;
48014;SDS011;33780;51.034;7.120;2023-06-24T10:01:40;5.25;;;3.00;;
48014;SDS011;33780;51.034;7.120;2023-06-24T10:04:08;8.02;;;2.60;;
48014;SDS011;33780;51.034;7.120;2023-06-24T10:06:35;5.28;;;2.60;;
48014;SDS011;33780;51.034;7.120;2023-06-24T10:09:00;6.22;;;3.17;;
48014;SDS011;33780;51.034;7.120;2023-06-24T10:11:26;4.97;;;2.85;;
48014;SDS011;33780;51.034;7.120;2023-06-24T10:13:52;4.50;;;2.45;;
48014;SDS011;33780;51.034;7.120;2023-06-24T10:16:18;5.65;;;2.80;;
48014;SDS011;33780;51.034;7.120;2023-06-24T10:18:44;4.60;;;2.65;;
48014;SDS011;33780;51.034;7.120;2023-06-24T10:21:10;5.75;;;2.35;;
48014;SDS011;33780;51.034;7.120;2023-06-24T10:26:23;4.50;;;2.40;;
48014;SDS011;33780;51.034;7.120;2023-06-24T10:39:49;4.82;;;2.60;;
48014;SDS011;33780;51.034;7.120;2023-06-24T10:47:41;4.35;;;2.60;;
48014;SDS011;33780;51.034;7.120;2023-06-24T10:50:09;5.15;;;2.42;;
48014;SDS011;33780;51.034;7.120;2023-06-24T10:52:43;3.25;;;2.10;;
48014;SDS011;33780;51.034;7.120;2023-06-24T10:55:09;4.20;;;2.28;;
48014;SDS011;33780;51.034;7.120;2023-06-24T10:57:37;3.88;;;2.20;;
48014;SDS011;33780;51.034;7.120;2023-06-24T11:00:03;3.80;;;2.33;;
48014;SDS011;33780;51.034;7.120;2023-06-24T11:02:29;4.78;;;2.33;;
48014;SDS011;33780;51.034;7.120;2023-06-24T11:04:55;4.85;;;2.40;;
48014;SDS011;33780;51.034;7.120;2023-06-24T11:07:23;5.25;;;2.25;;
48014;SDS011;33780;51.034;7.120;2023-06-24T11:09:51;4.93;;;2.15;;
48014;SDS011;33780;51.034;7.120;2023-06-24T11:12:23;4.38;;;1.88;;
48014;SDS011;33780;51.034;7.120;2023-06-24T11:14:50;3.70;;;2.00;;
48014;SDS011;33780;51.034;7.120;2023-06-24T11:17:16;5.22;;;2.05;;
48014;SDS011;33780;51.034;7.120;2023-06-24T11:19:41;5.43;;;1.95;;
48014;SDS011;33780;51.034;7.120;2023-06-24T11:22:08;5.00;;;2.20;;
48014;SDS011;33780;51.034;7.120;2023-06-24T11:24:34;4.10;;;1.92;;
48014;SDS011;33780;51.034;7.120;2023-06-24T11:27:01;3.15;;;1.50;;
48014;SDS011;33780;51.034;7.120;2023-06-24T11:29:30;3.15;;;1.40;;
48014;SDS011;33780;51.034;7.120;2023-06-24T11:31:57;3.85;;;1.45;;
48014;SDS011;33780;51.034;7.120;2023-06-24T11:34:22;2.00;;;1.00;;
48014;SDS011;33780;51.034;7.120;2023-06-24T11:36:47;2.97;;;1.40;;
48014;SDS011;33780;51.034;7.120;2023-06-24T11:39:23;3.45;;;1.63;;
48014;SDS011;33780;51.034;7.120;2023-06-24T11:41:51;2.60;;;1.40;;
48014;SDS011;33780;51.034;7.120;2023-06-24T11:44:17;3.67;;;1.50;;
48014;SDS011;33780;51.034;7.120;2023-06-24T11:46:46;4.30;;;1.50;;
48014;SDS011;33780;51.034;7.120;2023-06-24T11:49:12;2.90;;;1.70;;
48014;SDS011;33780;51.034;7.120;2023-06-24T11:51:45;3.92;;;1.58;;
48014;SDS011;33780;51.034;7.120;2023-06-24T11:54:40;3.97;;;1.45;;
48014;SDS011;33780;51.034;7.120;2023-06-24T11:57:06;2.97;;;1.55;;
48014;SDS011;33780;51.034;7.120;2023-06-24T11:59:31;3.25;;;1.67;;
48014;SDS011;33780;51.034;7.120;2023-06-24T12:01:57;2.65;;;1.50;;
48014;SDS011;33780;51.034;7.120;2023-06-24T12:04:27;3.25;;;1.40;;
48014;SDS011;33780;51.034;7.120;2023-06-24T12:06:54;4.97;;;1.77;;
48014;SDS011;33780;51.034;7.120;2023-06-24T12:09:19;6.05;;;1.80;;
48014;SDS011;33780;51.034;7.120;2023-06-24T12:11:45;3.08;;;1.60;;
48014;SDS011;33780;51.034;7.120;2023-06-24T12:14:10;4.25;;;1.75;;
48014;SDS011;33780;51.034;7.120;2023-06-24T12:16:36;4.88;;;1.73;;
48014;SDS011;33780;51.034;7.120;2023-06-24T12:19:01;3.13;;;1.63;;
48014;SDS011;33780;51.034;7.120;2023-06-24T12:21:27;2.60;;;1.60;;
48014;SDS011;33780;51.034;7.120;2023-06-24T12:23:52;3.90;;;1.90;;
48014;SDS011;33780;51.034;7.120;2023-06-24T12:26:18;3.05;;;1.65;;
48014;SDS011;33780;51.034;7.120;2023-06-24T12:28:43;2.90;;;1.50;;
48014;SDS011;33780;51.034;7.120;2023-06-24T12:31:08;2.30;;;1.30;;
48014;SDS011;33780;51.034;7.120;2023-06-24T12:33:33;2.60;;;1.48;;
48014;SDS011;33780;51.034;7.120;2023-06-24T12:35:59;2.85;;;1.48;;
48014;SDS011;33780;51.034;7.120;2023-06-24T12:38:25;2.72;;;1.35;;
48014;SDS011;33780;51.034;7.120;2023-06-24T12:40:50;2.80;;;1.50;;
48014;SDS011;33780;51.034;7.120;2023-06-24T12:43:15;2.60;;;1.40;;
48014;SDS011;33780;51.034;7.120;2023-06-24T12:45:41;2.58;;;1.48;;
48014;SDS011;33780;51.034;7.120;2023-06-24T12:48:12;2.88;;;1.50;;
48014;SDS011;33780;51.034;7.120;2023-06-24T12:50:38;4.32;;;1.70;;
48014;SDS011;33780;51.034;7.120;2023-06-24T12:53:03;3.05;;;1.30;;
48014;SDS011;33780;51.034;7.120;2023-06-24T12:55:29;3.03;;;1.60;;
48014;SDS011;33780;51.034;7.120;2023-06-24T12:57:54;2.50;;;1.40;;
48014;SDS011;33780;51.034;7.120;2023-06-24T13:00:20;2.88;;;1.35;;
48014;SDS011;33780;51.034;7.120;2023-06-24T13:02:46;3.25;;;1.48;;
48014;SDS011;33780;51.034;7.120;2023-06-24T13:05:11;2.25;;;1.40;;
48014;SDS011;33780;51.034;7.120;2023-06-24T13:07:37;2.88;;;1.40;;
48014;SDS011;33780;51.034;7.120;2023-06-24T13:10:02;2.38;;;1.40;;
48014;SDS011;33780;51.034;7.120;2023-06-24T13:12:30;2.78;;;1.40;;
48014;SDS011;33780;51.034;7.120;2023-06-24T13:14:56;2.53;;;1.40;;
48014;SDS011;33780;51.034;7.120;2023-06-24T13:17:21;2.97;;;1.58;;
48014;SDS011;33780;51.034;7.120;2023-06-24T13:19:46;4.25;;;1.40;;
48014;SDS011;33780;51.034;7.120;2023-06-24T13:22:12;4.95;;;1.52;;
48014;SDS011;33780;51.034;7.120;2023-06-24T13:24:37;2.63;;;1.15;;
48014;SDS011;33780;51.034;7.120;2023-06-24T13:27:02;3.78;;;1.65;;
48014;SDS011;33780;51.034;7.120;2023-06-24T13:29:28;3.08;;;1.50;;
48014;SDS011;33780;51.034;7.120;2023-06-24T13:31:53;2.75;;;1.50;;
48014;SDS011;33780;51.034;7.120;2023-06-24T13:34:18;2.63;;;1.65;;
48014;SDS011;33780;51.034;7.120;2023-06-24T13:36:44;2.80;;;1.30;;
48014;SDS011;33780;51.034;7.120;2023-06-24T13:39:09;2.92;;;1.58;;
48014;SDS011;33780;51.034;7.120;2023-06-24T13:41:38;2.80;;;1.40;;
48014;SDS011;33780;51.034;7.120;2023-06-24T13:44:04;3.70;;;1.60;;
48014;SDS011;33780;51.034;7.120;2023-06-24T13:46:30;2.72;;;1.35;;
48014;SDS011;33780;51.034;7.120;2023-06-24T13:48:56;3.05;;;1.40;;
48014;SDS011;33780;51.034;7.120;2023-06-24T13:51:23;2.92;;;1.50;;
48014;SDS011;33780;51.034;7.120;2023-06-24T13:53:49;3.30;;;1.30;;
48014;SDS011;33780;51.034;7.120;2023-06-24T13:56:23;2.65;;;1.50;;
48014;SDS011;33780;51.034;7.120;2023-06-24T13:58:50;3.13;;;1.55;;
48014;SDS011;33780;51.034;7.120;2023-06-24T14:01:16;2.28;;;1.30;;
48014;SDS011;33780;51.034;7.120;2023-06-24T14:03:42;3.53;;;1.55;;
48014;SDS011;33780;51.034;7.120;2023-06-24T14:06:08;4.35;;;1.70;;
48014;SDS011;33780;51.034;7.120;2023-06-24T14:08:34;4.82;;;1.50;;
48014;SDS011;33780;51.034;7.120;2023-06-24T14:10:59;3.00;;;1.48;;
48014;SDS011;33780;51.034;7.120;2023-06-24T14:13:25;3.10;;;1.63;;
48014;SDS011;33780;51.034;7.120;2023-06-24T14:15:52;6.82;;;1.52;;
48014;SDS011;33780;51.034;7.120;2023-06-24T14:18:18;2.88;;;1.50;;
48014;SDS011;33780;51.034;7.120;2023-06-24T14:20:43;3.28;;;1.70;;
48014;SDS011;33780;51.034;7.120;2023-06-24T14:23:08;3.65;;;1.70;;
48014;SDS011;33780;51.034;7.120;2023-06-24T14:25:34;3.13;;;1.60;;
48014;SDS011;33780;51.034;7.120;2023-06-24T14:27:59;3.08;;;1.38;;
48014;SDS011;33780;51.034;7.120;2023-06-24T14:30:24;4.60;;;1.70;;
48014;SDS011;33780;51.034;7.120;2023-06-24T14:32:49;2.75;;;1.48;;
48014;SDS011;33780;51.034;7.120;2023-06-24T14:35:15;3.33;;;1.40;;
48014;SDS011;33780;51.034;7.120;2023-06-24T14:37:40;2.63;;;1.45;;
48014;SDS011;33780;51.034;7.120;2023-06-24T14:40:07;4.53;;;1.42;;
48014;SDS011;33780;51.034;7.120;2023-06-24T14:42:32;2.75;;;1.40;;
48014;SDS011;33780;51.034;7.120;2023-06-24T14:44:58;3.08;;;1.30;;
48014;SDS011;33780;51.034;7.120;2023-06-24T14:47:23;4.72;;;1.75;;
48014;SDS011;33780;51.034;7.120;2023-06-24T14:49:49;2.70;;;1.45;;
48014;SDS011;33780;51.034;7.120;2023-06-24T14:52:14;4.32;;;1.50;;
48014;SDS011;33780;51.034;7.120;2023-06-24T14:54:39;3.22;;;1.38;;
48014;SDS011;33780;51.034;7.120;2023-06-24T14:57:05;4.07;;;1.48;;
48014;SDS011;33780;51.034;7.120;2023-06-24T14:59:30;2.33;;;1.23;;
48014;SDS011;33780;51.034;7.120;2023-06-24T15:01:55;2.65;;;1.25;;
48014;SDS011;33780;51.034;7.120;2023-06-24T15:04:20;2.42;;;1.27;;
48014;SDS011;33780;51.034;7.120;2023-06-24T15:06:46;2.97;;;1.40;;
48014;SDS011;33780;51.034;7.120;2023-06-24T15:09:11;3.22;;;1.50;;
48014;SDS011;33780;51.034;7.120;2023-06-24T15:11:36;2.38;;;1.20;;
48014;SDS011;33780;51.034;7.120;2023-06-24T15:14:01;2.63;;;1.10;;
48014;SDS011;33780;51.034;7.120;2023-06-24T15:16:27;4.40;;;1.20;;
48014;SDS011;33780;51.034;7.120;2023-06-24T15:18:52;2.40;;;1.20;;
48014;SDS011;33780;51.034;7.120;2023-06-24T15:21:18;2.80;;;1.20;;
48014;SDS011;33780;51.034;7.120;2023-06-24T15:23:44;1.80;;;1.00;;
48014;SDS011;33780;51.034;7.120;2023-06-24T15:26:09;2.45;;;1.10;;
48014;SDS011;33780;51.034;7.120;2023-06-24T15:28:34;3.50;;;1.10;;
48014;SDS011;33780;51.034;7.120;2023-06-24T15:31:00;2.58;;;1.20;;
48014;SDS011;33780;51.034;7.120;2023-06-24T15:33:25;2.05;;;1.00;;
48014;SDS011;33780;51.034;7.120;2023-06-24T15:35:53;2.58;;;1.20;;
48014;SDS011;33780;51.034;7.120;2023-06-24T15:38:19;2.75;;;1.00;;
48014;SDS011;33780;51.034;7.120;2023-06-24T15:40:48;2.28;;;1.23;;
48014;SDS011;33780;51.034;7.120;2023-06-24T15:43:23;3.67;;;1.10;;
48014;SDS011;33780;51.034;7.120;2023-06-24T15:45:48;2.20;;;0.90;;
48014;SDS011;33780;51.034;7.120;2023-06-24T15:48:13;2.03;;;1.10;;
48014;SDS011;33780;51.034;7.120;2023-06-24T15:50:39;3.03;;;1.25;;